sensor_id;sensor_type;location;lat;lon;timestamp;P1;durP1;ratioP1;P2;durP2;ratioP2
76566;SDS011;65428;53.194;6.132;2023-05-07T00:00:32;33.67;;;30.38;;
76566;SDS011;65428;53.194;6.132;2023-05-07T00:03:00;33.17;;;29.88;;
76566;SDS011;65428;53.194;6.132;2023-05-07T00:05:26;33.47;;;30.00;;
76566;SDS011;65428;53.194;6.132;2023-05-07T00:08:00;34.30;;;30.83;;
76566;SDS011;65428;53.194;6.132;2023-05-07T00:14:40;33.53;;;30.03;;
76566;SDS011;65428;53.194;6.132;2023-05-07T00:21:02;35.78;;;32.03;;
76566;SDS011;65428;53.194;6.132;2023-05-07T00:23:45;34.70;;;31.10;;
76566;SDS011;65428;53.194;6.132;2023-05-07T00:26:48;34.97;;;31.30;;
76566;SDS011;65428;53.194;6.132;2023-05-07T00:29:07;36.13;;;32.20;;
76566;SDS011;65428;53.194;6.132;2023-05-07T00:34:33;36.65;;;32.67;;
76566;SDS011;65428;53.194;6.132;2023-05-07T00:37:01;38.55;;;34.50;;
76566;SDS011;65428;53.194;6.132;2023-05-07T00:39:36;38.28;;;34.28;;
76566;SDS011;65428;53.194;6.132;2023-05-07T00:42:54;38.40;;;34.40;;
76566;SDS011;65428;53.194;6.132;2023-05-07T00:45:32;38.72;;;34.60;;
76566;SDS011;65428;53.194;6.132;2023-05-07T00:48:04;38.80;;;34.75;;
76566;SDS011;65428;53.194;6.132;2023-05-07T00:51:21;38.65;;;34.55;;
76566;SDS011;65428;53.194;6.132;2023-05-07T00:54:16;38.42;;;34.28;;
76566;SDS011;65428;53.194;6.132;2023-05-07T00:56:52;40.38;;;35.70;;
76566;SDS011;65428;53.194;6.132;2023-05-07T00:59:19;39.90;;;35.67;;
76566;SDS011;65428;53.194;6.132;2023-05-07T01:01:44;38.33;;;34.38;;
76566;SDS011;65428;53.194;6.132;2023-05-07T01:04:10;38.33;;;34.43;;
76566;SDS011;65428;53.194;6.132;2023-05-07T01:06:42;39.58;;;35.40;;
76566;SDS011;65428;53.194;6.132;2023-05-07T01:09:13;39.80;;;35.58;;
76566;SDS011;65428;53.194;6.132;2023-05-07T01:11:42;42.10;;;37.58;;
76566;SDS011;65428;53.194;6.132;2023-05-07T01:14:15;40.30;;;36.03;;
76566;SDS011;65428;53.194;6.132;2023-05-07T01:16:53;41.03;;;36.83;;
76566;SDS011;65428;53.194;6.132;2023-05-07T01:19:22;40.65;;;36.35;;
76566;SDS011;65428;53.194;6.132;2023-05-07T01:21:48;38.70;;;34.67;;
76566;SDS011;65428;53.194;6.132;2023-05-07T01:24:25;38.78;;;34.67;;
76566;SDS011;65428;53.194;6.132;2023-05-07T01:30:08;41.38;;;37.05;;
76566;SDS011;65428;53.194;6.132;2023-05-07T01:32:44;39.60;;;35.40;;
76566;SDS011;65428;53.194;6.132;2023-05-07T01:35:18;41.45;;;36.88;;
76566;SDS011;65428;53.194;6.132;2023-05-07T01:45:41;40.45;;;36.17;;
76566;SDS011;65428;53.194;6.132;2023-05-07T01:58:33;44.15;;;39.50;;
76566;SDS011;65428;53.194;6.132;2023-05-07T02:01:05;44.95;;;39.95;;
76566;SDS011;65428;53.194;6.132;2023-05-07T02:07:27;42.95;;;38.25;;
76566;SDS011;65428;53.194;6.132;2023-05-07T02:09:53;43.30;;;38.80;;
76566;SDS011;65428;53.194;6.132;2023-05-07T02:12:23;42.95;;;38.55;;
76566;SDS011;65428;53.194;6.132;2023-05-07T02:15:21;44.40;;;39.72;;
76566;SDS011;65428;53.194;6.132;2023-05-07T02:21:09;44.83;;;40.10;;
76566;SDS011;65428;53.194;6.132;2023-05-07T02:23:44;43.83;;;39.23;;
76566;SDS011;65428;53.194;6.132;2023-05-07T02:29:30;43.27;;;38.73;;
76566;SDS011;65428;53.194;6.132;2023-05-07T02:32:17;42.93;;;38.23;;
76566;SDS011;65428;53.194;6.132;2023-05-07T02:34:52;45.13;;;39.63;;
76566;SDS011;65428;53.194;6.132;2023-05-07T02:37:59;45.67;;;39.72;;
76566;SDS011;65428;53.194;6.132;2023-05-07T02:44:52;45.95;;;41.05;;
76566;SDS011;65428;53.194;6.132;2023-05-07T02:51:32;45.35;;;40.45;;
76566;SDS011;65428;53.194;6.132;2023-05-07T02:53:57;45.28;;;40.33;;
76566;SDS011;65428;53.194;6.132;2023-05-07T02:56:26;44.58;;;39.85;;
76566;SDS011;65428;53.194;6.132;2023-05-07T02:58:54;47.30;;;42.10;;
76566;SDS011;65428;53.194;6.132;2023-05-07T03:05:33;48.33;;;42.00;;
76566;SDS011;65428;53.194;6.132;2023-05-07T03:08:43;46.05;;;40.38;;
76566;SDS011;65428;53.194;6.132;2023-05-07T03:11:09;47.67;;;42.50;;
76566;SDS011;65428;53.194;6.132;2023-05-07T03:13:35;47.58;;;42.05;;
76566;SDS011;65428;53.194;6.132;2023-05-07T03:19:24;48.22;;;42.92;;
76566;SDS011;65428;53.194;6.132;2023-05-07T03:21:59;48.03;;;42.55;;
76566;SDS011;65428;53.194;6.132;2023-05-07T03:31:08;52.42;;;46.13;;
76566;SDS011;65428;53.194;6.132;2023-05-07T03:33:38;54.28;;;44.83;;
76566;SDS011;65428;53.194;6.132;2023-05-07T03:43:45;50.92;;;43.88;;
76566;SDS011;65428;53.194;6.132;2023-05-07T03:47:02;55.47;;;45.35;;
76566;SDS011;65428;53.194;6.132;2023-05-07T03:53:34;53.00;;;44.55;;
76566;SDS011;65428;53.194;6.132;2023-05-07T04:06:31;58.00;;;46.73;;
76566;SDS011;65428;53.194;6.132;2023-05-07T04:16:41;59.70;;;46.97;;
76566;SDS011;65428;53.194;6.132;2023-05-07T04:31:33;60.42;;;48.47;;
76566;SDS011;65428;53.194;6.132;2023-05-07T04:46:21;68.13;;;51.00;;
76566;SDS011;65428;53.194;6.132;2023-05-07T04:57:43;63.55;;;49.35;;
76566;SDS011;65428;53.194;6.132;2023-05-07T05:26:51;49.23;;;42.23;;
76566;SDS011;65428;53.194;6.132;2023-05-07T05:46:56;48.30;;;40.53;;
76566;SDS011;65428;53.194;6.132;2023-05-07T05:52:33;46.55;;;40.80;;
76566;SDS011;65428;53.194;6.132;2023-05-07T05:55:24;49.13;;;42.00;;
76566;SDS011;65428;53.194;6.132;2023-05-07T06:05:12;44.70;;;39.88;;
76566;SDS011;65428;53.194;6.132;2023-05-07T06:14:49;41.40;;;36.97;;
76566;SDS011;65428;53.194;6.132;2023-05-07T06:17:31;43.13;;;38.53;;
76566;SDS011;65428;53.194;6.132;2023-05-07T06:20:00;42.75;;;38.08;;
76566;SDS011;65428;53.194;6.132;2023-05-07T06:22:46;42.00;;;37.45;;
76566;SDS011;65428;53.194;6.132;2023-05-07T06:30:52;40.20;;;36.10;;
76566;SDS011;65428;53.194;6.132;2023-05-07T06:33:38;39.78;;;35.58;;
76566;SDS011;65428;53.194;6.132;2023-05-07T06:39:07;37.73;;;33.90;;
76566;SDS011;65428;53.194;6.132;2023-05-07T06:41:38;36.95;;;33.22;;
76566;SDS011;65428;53.194;6.132;2023-05-07T06:44:04;39.17;;;35.07;;
76566;SDS011;65428;53.194;6.132;2023-05-07T06:46:33;38.13;;;34.10;;
76566;SDS011;65428;53.194;6.132;2023-05-07T06:49:23;37.60;;;33.80;;
76566;SDS011;65428;53.194;6.132;2023-05-07T06:52:18;37.22;;;33.42;;
76566;SDS011;65428;53.194;6.132;2023-05-07T06:54:47;36.17;;;32.38;;
76566;SDS011;65428;53.194;6.132;2023-05-07T06:57:18;34.58;;;31.10;;
76566;SDS011;65428;53.194;6.132;2023-05-07T07:02:53;35.53;;;31.92;;
76566;SDS011;65428;53.194;6.132;2023-05-07T07:05:28;34.15;;;30.80;;
76566;SDS011;65428;53.194;6.132;2023-05-07T07:08:31;33.97;;;30.63;;
76566;SDS011;65428;53.194;6.132;2023-05-07T07:11:00;34.95;;;31.45;;
76566;SDS011;65428;53.194;6.132;2023-05-07T07:13:25;34.28;;;30.95;;
76566;SDS011;65428;53.194;6.132;2023-05-07T07:18:54;35.70;;;31.92;;
76566;SDS011;65428;53.194;6.132;2023-05-07T07:24:07;33.40;;;30.20;;
76566;SDS011;65428;53.194;6.132;2023-05-07T07:26:35;33.38;;;30.08;;
76566;SDS011;65428;53.194;6.132;2023-05-07T07:32:17;34.10;;;30.70;;
76566;SDS011;65428;53.194;6.132;2023-05-07T07:34:55;33.75;;;30.35;;
76566;SDS011;65428;53.194;6.132;2023-05-07T07:37:41;33.95;;;30.63;;
76566;SDS011;65428;53.194;6.132;2023-05-07T07:40:09;32.42;;;28.98;;
76566;SDS011;65428;53.194;6.132;2023-05-07T07:42:38;33.70;;;30.40;;
76566;SDS011;65428;53.194;6.132;2023-05-07T07:45:09;33.27;;;30.00;;
76566;SDS011;65428;53.194;6.132;2023-05-07T07:47:48;33.47;;;30.08;;
76566;SDS011;65428;53.194;6.132;2023-05-07T07:50:26;32.77;;;29.57;;
76566;SDS011;65428;53.194;6.132;2023-05-07T07:53:00;33.03;;;29.67;;
76566;SDS011;65428;53.194;6.132;2023-05-07T07:55:47;32.90;;;29.70;;
76566;SDS011;65428;53.194;6.132;2023-05-07T07:58:48;33.20;;;30.08;;
76566;SDS011;65428;53.194;6.132;2023-05-07T08:10:57;30.60;;;27.60;;
76566;SDS011;65428;53.194;6.132;2023-05-07T08:17:11;30.08;;;27.17;;
76566;SDS011;65428;53.194;6.132;2023-05-07T08:20:12;30.08;;;26.98;;
76566;SDS011;65428;53.194;6.132;2023-05-07T08:22:37;30.38;;;27.38;;
76566;SDS011;65428;53.194;6.132;2023-05-07T08:25:09;29.83;;;26.97;;
76566;SDS011;65428;53.194;6.132;2023-05-07T08:27:38;30.17;;;27.17;;
76566;SDS011;65428;53.194;6.132;2023-05-07T08:30:52;30.30;;;27.30;;
76566;SDS011;65428;53.194;6.132;2023-05-07T08:33:36;30.50;;;27.60;;
76566;SDS011;65428;53.194;6.132;2023-05-07T08:36:06;29.10;;;26.38;;
76566;SDS011;65428;53.194;6.132;2023-05-07T08:38:38;29.55;;;26.75;;
76566;SDS011;65428;53.194;6.132;2023-05-07T08:41:29;30.15;;;27.35;;
76566;SDS011;65428;53.194;6.132;2023-05-07T08:44:33;30.60;;;27.60;;
76566;SDS011;65428;53.194;6.132;2023-05-07T08:50:58;28.85;;;26.15;;
76566;SDS011;65428;53.194;6.132;2023-05-07T08:54:08;29.50;;;26.70;;
76566;SDS011;65428;53.194;6.132;2023-05-07T08:57:30;30.77;;;27.70;;
76566;SDS011;65428;53.194;6.132;2023-05-07T09:00:05;29.80;;;26.90;;
76566;SDS011;65428;53.194;6.132;2023-05-07T09:03:08;30.00;;;27.10;;
76566;SDS011;65428;53.194;6.132;2023-05-07T09:05:37;30.75;;;27.75;;
76566;SDS011;65428;53.194;6.132;2023-05-07T09:08:17;30.02;;;27.02;;
76566;SDS011;65428;53.194;6.132;2023-05-07T09:10:47;30.67;;;27.67;;
76566;SDS011;65428;53.194;6.132;2023-05-07T09:17:16;29.77;;;26.90;;
76566;SDS011;65428;53.194;6.132;2023-05-07T09:19:56;32.15;;;29.05;;
76566;SDS011;65428;53.194;6.132;2023-05-07T09:23:01;29.95;;;27.05;;
76566;SDS011;65428;53.194;6.132;2023-05-07T09:25:45;29.50;;;26.60;;
76566;SDS011;65428;53.194;6.132;2023-05-07T09:28:28;29.17;;;26.47;;
76566;SDS011;65428;53.194;6.132;2023-05-07T09:31:03;30.08;;;27.25;;
76566;SDS011;65428;53.194;6.132;2023-05-07T09:33:32;29.73;;;26.92;;
76566;SDS011;65428;53.194;6.132;2023-05-07T09:35:57;30.30;;;27.40;;
76566;SDS011;65428;53.194;6.132;2023-05-07T09:38:32;29.93;;;27.03;;
76566;SDS011;65428;53.194;6.132;2023-05-07T09:48:15;30.23;;;27.33;;
76566;SDS011;65428;53.194;6.132;2023-05-07T09:50:49;30.67;;;27.77;;
76566;SDS011;65428;53.194;6.132;2023-05-07T09:53:40;30.88;;;27.98;;
76566;SDS011;65428;53.194;6.132;2023-05-07T09:56:07;29.83;;;27.10;;
76566;SDS011;65428;53.194;6.132;2023-05-07T09:58:45;29.27;;;26.43;;
76566;SDS011;65428;53.194;6.132;2023-05-07T10:04:30;29.80;;;27.07;;
76566;SDS011;65428;53.194;6.132;2023-05-07T10:07:22;28.40;;;25.70;;
76566;SDS011;65428;53.194;6.132;2023-05-07T10:09:55;28.83;;;26.17;;
76566;SDS011;65428;53.194;6.132;2023-05-07T10:13:08;29.60;;;26.73;;
76566;SDS011;65428;53.194;6.132;2023-05-07T10:15:51;28.80;;;25.95;;
76566;SDS011;65428;53.194;6.132;2023-05-07T10:18:48;28.58;;;25.92;;
76566;SDS011;65428;53.194;6.132;2023-05-07T10:25:38;27.90;;;25.40;;
76566;SDS011;65428;53.194;6.132;2023-05-07T10:38:50;25.52;;;23.23;;
76566;SDS011;65428;53.194;6.132;2023-05-07T10:44:47;26.03;;;23.63;;
76566;SDS011;65428;53.194;6.132;2023-05-07T10:54:34;24.52;;;22.33;;
76566;SDS011;65428;53.194;6.132;2023-05-07T10:59:53;23.48;;;21.45;;
76566;SDS011;65428;53.194;6.132;2023-05-07T11:06:08;23.17;;;21.10;;
76566;SDS011;65428;53.194;6.132;2023-05-07T11:08:58;22.75;;;20.75;;
76566;SDS011;65428;53.194;6.132;2023-05-07T11:17:12;22.38;;;20.48;;
76566;SDS011;65428;53.194;6.132;2023-05-07T11:26:15;20.88;;;19.08;;
76566;SDS011;65428;53.194;6.132;2023-05-07T11:28:47;21.83;;;19.95;;
76566;SDS011;65428;53.194;6.132;2023-05-07T11:31:25;21.40;;;19.63;;
76566;SDS011;65428;53.194;6.132;2023-05-07T11:34:32;20.73;;;18.92;;
76566;SDS011;65428;53.194;6.132;2023-05-07T11:36:59;20.55;;;18.95;;
76566;SDS011;65428;53.194;6.132;2023-05-07T11:39:33;21.27;;;19.57;;
76566;SDS011;65428;53.194;6.132;2023-05-07T11:47:50;20.75;;;19.05;;
76566;SDS011;65428;53.194;6.132;2023-05-07T11:50:19;20.70;;;19.00;;
76566;SDS011;65428;53.194;6.132;2023-05-07T11:52:55;19.92;;;18.27;;
76566;SDS011;65428;53.194;6.132;2023-05-07T12:02:37;21.95;;;20.05;;
76566;SDS011;65428;53.194;6.132;2023-05-07T12:05:05;20.75;;;18.98;;
76566;SDS011;65428;53.194;6.132;2023-05-07T12:11:00;19.98;;;18.27;;
76566;SDS011;65428;53.194;6.132;2023-05-07T12:13:26;20.67;;;18.97;;
76566;SDS011;65428;53.194;6.132;2023-05-07T12:15:55;19.45;;;17.90;;
76566;SDS011;65428;53.194;6.132;2023-05-07T12:18:30;19.77;;;18.17;;
76566;SDS011;65428;53.194;6.132;2023-05-07T12:21:08;18.70;;;17.20;;
76566;SDS011;65428;53.194;6.132;2023-05-07T12:26:39;19.05;;;17.35;;
76566;SDS011;65428;53.194;6.132;2023-05-07T12:29:05;19.23;;;17.70;;
76566;SDS011;65428;53.194;6.132;2023-05-07T12:31:31;18.50;;;17.00;;
76566;SDS011;65428;53.194;6.132;2023-05-07T12:33:57;18.90;;;17.20;;
76566;SDS011;65428;53.194;6.132;2023-05-07T12:36:23;19.17;;;17.58;;
76566;SDS011;65428;53.194;6.132;2023-05-07T12:38:49;18.83;;;17.25;;
76566;SDS011;65428;53.194;6.132;2023-05-07T12:41:15;18.83;;;17.27;;
76566;SDS011;65428;53.194;6.132;2023-05-07T12:43:43;18.73;;;17.23;;
76566;SDS011;65428;53.194;6.132;2023-05-07T12:46:10;19.23;;;17.63;;
76566;SDS011;65428;53.194;6.132;2023-05-07T12:48:38;18.30;;;16.80;;
76566;SDS011;65428;53.194;6.132;2023-05-07T12:51:10;17.85;;;16.45;;
76566;SDS011;65428;53.194;6.132;2023-05-07T12:53:41;17.38;;;15.98;;
76566;SDS011;65428;53.194;6.132;2023-05-07T12:56:07;17.50;;;16.03;;
76566;SDS011;65428;53.194;6.132;2023-05-07T12:58:34;17.73;;;16.42;;
76566;SDS011;65428;53.194;6.132;2023-05-07T13:01:01;17.70;;;16.27;;
76566;SDS011;65428;53.194;6.132;2023-05-07T13:03:33;16.50;;;15.10;;
76566;SDS011;65428;53.194;6.132;2023-05-07T13:06:04;16.63;;;15.32;;
76566;SDS011;65428;53.194;6.132;2023-05-07T13:08:35;16.60;;;15.30;;
76566;SDS011;65428;53.194;6.132;2023-05-07T13:11:03;16.93;;;15.53;;
76566;SDS011;65428;53.194;6.132;2023-05-07T13:13:39;17.25;;;15.88;;
76566;SDS011;65428;53.194;6.132;2023-05-07T13:16:06;17.65;;;16.25;;
76566;SDS011;65428;53.194;6.132;2023-05-07T13:18:34;17.10;;;15.77;;
76566;SDS011;65428;53.194;6.132;2023-05-07T13:21:00;16.10;;;14.90;;
76566;SDS011;65428;53.194;6.132;2023-05-07T13:23:26;16.73;;;15.32;;
76566;SDS011;65428;53.194;6.132;2023-05-07T13:25:53;15.85;;;14.63;;
76566;SDS011;65428;53.194;6.132;2023-05-07T13:28:19;15.25;;;14.05;;
76566;SDS011;65428;53.194;6.132;2023-05-07T13:30:45;16.90;;;15.52;;
76566;SDS011;65428;53.194;6.132;2023-05-07T13:33:11;16.35;;;15.05;;
76566;SDS011;65428;53.194;6.132;2023-05-07T13:35:37;19.25;;;17.75;;
76566;SDS011;65428;53.194;6.132;2023-05-07T13:38:03;16.30;;;15.05;;
76566;SDS011;65428;53.194;6.132;2023-05-07T13:40:29;15.57;;;14.38;;
76566;SDS011;65428;53.194;6.132;2023-05-07T13:42:56;16.17;;;14.98;;
76566;SDS011;65428;53.194;6.132;2023-05-07T13:45:23;15.43;;;14.25;;
76566;SDS011;65428;53.194;6.132;2023-05-07T13:47:50;16.17;;;14.95;;
76566;SDS011;65428;53.194;6.132;2023-05-07T13:50:16;16.77;;;15.27;;
76566;SDS011;65428;53.194;6.132;2023-05-07T13:52:42;17.07;;;15.67;;
76566;SDS011;65428;53.194;6.132;2023-05-07T13:55:18;15.32;;;14.13;;
76566;SDS011;65428;53.194;6.132;2023-05-07T13:57:53;15.63;;;14.32;;
76566;SDS011;65428;53.194;6.132;2023-05-07T14:00:24;14.17;;;13.07;;
76566;SDS011;65428;53.194;6.132;2023-05-07T14:02:50;14.80;;;13.55;;
76566;SDS011;65428;53.194;6.132;2023-05-07T14:05:16;15.80;;;14.55;;
76566;SDS011;65428;53.194;6.132;2023-05-07T14:07:41;15.10;;;14.00;;
76566;SDS011;65428;53.194;6.132;2023-05-07T14:10:07;14.30;;;13.20;;
76566;SDS011;65428;53.194;6.132;2023-05-07T14:12:34;14.57;;;13.48;;
76566;SDS011;65428;53.194;6.132;2023-05-07T14:15:03;15.63;;;14.52;;
76566;SDS011;65428;53.194;6.132;2023-05-07T14:17:28;14.98;;;13.88;;
76566;SDS011;65428;53.194;6.132;2023-05-07T14:19:55;15.68;;;14.48;;
76566;SDS011;65428;53.194;6.132;2023-05-07T14:22:21;14.45;;;13.43;;
76566;SDS011;65428;53.194;6.132;2023-05-07T14:24:47;15.30;;;14.10;;
76566;SDS011;65428;53.194;6.132;2023-05-07T14:27:14;15.60;;;14.40;;
76566;SDS011;65428;53.194;6.132;2023-05-07T14:29:40;15.85;;;14.73;;
76566;SDS011;65428;53.194;6.132;2023-05-07T14:32:06;15.50;;;14.27;;
76566;SDS011;65428;53.194;6.132;2023-05-07T14:34:31;15.20;;;14.00;;
76566;SDS011;65428;53.194;6.132;2023-05-07T14:36:57;16.30;;;15.02;;
76566;SDS011;65428;53.194;6.132;2023-05-07T14:39:24;16.83;;;15.52;;
76566;SDS011;65428;53.194;6.132;2023-05-07T14:41:51;17.55;;;16.15;;
76566;SDS011;65428;53.194;6.132;2023-05-07T14:44:17;17.17;;;15.85;;
76566;SDS011;65428;53.194;6.132;2023-05-07T14:46:42;17.17;;;15.77;;
76566;SDS011;65428;53.194;6.132;2023-05-07T14:49:08;18.03;;;16.53;;
76566;SDS011;65428;53.194;6.132;2023-05-07T14:51:42;17.65;;;16.25;;
76566;SDS011;65428;53.194;6.132;2023-05-07T14:54:09;16.92;;;15.63;;
76566;SDS011;65428;53.194;6.132;2023-05-07T14:56:35;17.58;;;16.25;;
76566;SDS011;65428;53.194;6.132;2023-05-07T14:59:01;17.03;;;15.67;;
76566;SDS011;65428;53.194;6.132;2023-05-07T15:01:27;17.63;;;16.23;;
76566;SDS011;65428;53.194;6.132;2023-05-07T15:03:53;16.40;;;15.13;;
76566;SDS011;65428;53.194;6.132;2023-05-07T15:06:20;17.50;;;16.00;;
76566;SDS011;65428;53.194;6.132;2023-05-07T15:08:46;16.17;;;14.98;;
76566;SDS011;65428;53.194;6.132;2023-05-07T15:11:12;17.73;;;16.40;;
76566;SDS011;65428;53.194;6.132;2023-05-07T15:13:37;17.70;;;16.40;;
76566;SDS011;65428;53.194;6.132;2023-05-07T15:16:03;16.47;;;15.17;;
76566;SDS011;65428;53.194;6.132;2023-05-07T15:18:29;16.98;;;15.68;;
76566;SDS011;65428;53.194;6.132;2023-05-07T15:20:55;15.95;;;14.65;;
76566;SDS011;65428;53.194;6.132;2023-05-07T15:23:21;15.65;;;14.35;;
76566;SDS011;65428;53.194;6.132;2023-05-07T15:25:47;16.67;;;15.37;;
76566;SDS011;65428;53.194;6.132;2023-05-07T15:28:13;16.40;;;15.10;;
76566;SDS011;65428;53.194;6.132;2023-05-07T15:30:41;16.52;;;15.32;;
76566;SDS011;65428;53.194;6.132;2023-05-07T15:33:07;16.30;;;14.90;;
76566;SDS011;65428;53.194;6.132;2023-05-07T15:35:33;16.17;;;14.88;;
76566;SDS011;65428;53.194;6.132;2023-05-07T15:37:58;16.80;;;15.50;;
76566;SDS011;65428;53.194;6.132;2023-05-07T15:40:24;16.90;;;15.60;;
76566;SDS011;65428;53.194;6.132;2023-05-07T15:42:55;17.67;;;16.27;;
76566;SDS011;65428;53.194;6.132;2023-05-07T15:45:21;17.02;;;15.70;;
76566;SDS011;65428;53.194;6.132;2023-05-07T15:47:48;16.98;;;15.68;;
76566;SDS011;65428;53.194;6.132;2023-05-07T15:50:14;16.63;;;15.32;;
76566;SDS011;65428;53.194;6.132;2023-05-07T15:52:39;16.80;;;15.55;;
76566;SDS011;65428;53.194;6.132;2023-05-07T15:55:06;16.80;;;15.45;;
76566;SDS011;65428;53.194;6.132;2023-05-07T15:57:33;17.08;;;15.52;;
76566;SDS011;65428;53.194;6.132;2023-05-07T15:59:59;17.13;;;15.80;;
76566;SDS011;65428;53.194;6.132;2023-05-07T16:02:32;17.08;;;15.77;;
76566;SDS011;65428;53.194;6.132;2023-05-07T16:04:58;17.40;;;16.00;;
76566;SDS011;65428;53.194;6.132;2023-05-07T16:07:25;17.38;;;15.98;;
76566;SDS011;65428;53.194;6.132;2023-05-07T16:09:50;16.70;;;15.40;;
76566;SDS011;65428;53.194;6.132;2023-05-07T16:12:16;16.40;;;15.10;;
76566;SDS011;65428;53.194;6.132;2023-05-07T16:14:42;15.82;;;14.57;;
76566;SDS011;65428;53.194;6.132;2023-05-07T16:17:08;15.73;;;14.50;;
76566;SDS011;65428;53.194;6.132;2023-05-07T16:19:33;15.20;;;14.00;;
76566;SDS011;65428;53.194;6.132;2023-05-07T16:22:00;15.25;;;14.10;;
76566;SDS011;65428;53.194;6.132;2023-05-07T16:24:25;15.20;;;14.10;;
76566;SDS011;65428;53.194;6.132;2023-05-07T16:26:51;15.02;;;13.93;;
76566;SDS011;65428;53.194;6.132;2023-05-07T16:29:16;15.13;;;14.00;;
76566;SDS011;65428;53.194;6.132;2023-05-07T16:31:44;15.98;;;14.68;;
76566;SDS011;65428;53.194;6.132;2023-05-07T16:34:10;15.02;;;13.82;;
76566;SDS011;65428;53.194;6.132;2023-05-07T16:36:35;14.80;;;13.70;;
76566;SDS011;65428;53.194;6.132;2023-05-07T16:39:01;15.25;;;14.05;;
76566;SDS011;65428;53.194;6.132;2023-05-07T16:41:27;15.43;;;14.23;;
76566;SDS011;65428;53.194;6.132;2023-05-07T16:43:52;14.07;;;12.97;;
76566;SDS011;65428;53.194;6.132;2023-05-07T16:46:18;14.47;;;13.47;;
76566;SDS011;65428;53.194;6.132;2023-05-07T16:48:44;14.82;;;13.55;;
76566;SDS011;65428;53.194;6.132;2023-05-07T16:51:10;14.90;;;13.85;;
76566;SDS011;65428;53.194;6.132;2023-05-07T16:53:35;15.67;;;14.47;;
76566;SDS011;65428;53.194;6.132;2023-05-07T16:56:04;16.52;;;15.32;;
76566;SDS011;65428;53.194;6.132;2023-05-07T16:58:30;15.77;;;14.68;;
76566;SDS011;65428;53.194;6.132;2023-05-07T17:00:57;16.73;;;15.43;;
76566;SDS011;65428;53.194;6.132;2023-05-07T17:03:23;16.88;;;15.50;;
76566;SDS011;65428;53.194;6.132;2023-05-07T17:05:49;16.98;;;15.73;;
76566;SDS011;65428;53.194;6.132;2023-05-07T17:08:15;17.42;;;16.13;;
76566;SDS011;65428;53.194;6.132;2023-05-07T17:10:41;17.23;;;16.00;;
76566;SDS011;65428;53.194;6.132;2023-05-07T17:13:07;17.37;;;16.03;;
76566;SDS011;65428;53.194;6.132;2023-05-07T17:15:32;17.40;;;16.02;;
76566;SDS011;65428;53.194;6.132;2023-05-07T17:17:58;16.77;;;15.57;;
76566;SDS011;65428;53.194;6.132;2023-05-07T17:20:24;16.77;;;15.50;;
76566;SDS011;65428;53.194;6.132;2023-05-07T17:22:49;17.33;;;15.93;;
76566;SDS011;65428;53.194;6.132;2023-05-07T17:25:15;17.38;;;16.08;;
76566;SDS011;65428;53.194;6.132;2023-05-07T17:27:41;18.27;;;16.77;;
76566;SDS011;65428;53.194;6.132;2023-05-07T17:30:06;17.42;;;16.02;;
76566;SDS011;65428;53.194;6.132;2023-05-07T17:32:33;17.08;;;15.77;;
76566;SDS011;65428;53.194;6.132;2023-05-07T17:35:17;17.50;;;16.10;;
76566;SDS011;65428;53.194;6.132;2023-05-07T18:02:07;17.33;;;15.95;;
76566;SDS011;65428;53.194;6.132;2023-05-07T18:15:18;17.48;;;16.08;;
76566;SDS011;65428;53.194;6.132;2023-05-07T18:17:44;19.60;;;18.00;;
76566;SDS011;65428;53.194;6.132;2023-05-07T18:23:25;18.83;;;17.33;;
76566;SDS011;65428;53.194;6.132;2023-05-07T18:25:51;19.37;;;17.77;;
76566;SDS011;65428;53.194;6.132;2023-05-07T18:31:28;19.58;;;18.08;;
76566;SDS011;65428;53.194;6.132;2023-05-07T18:44:23;20.70;;;19.02;;
76566;SDS011;65428;53.194;6.132;2023-05-07T18:46:49;21.00;;;19.30;;
76566;SDS011;65428;53.194;6.132;2023-05-07T18:49:15;20.40;;;18.80;;
76566;SDS011;65428;53.194;6.132;2023-05-07T18:51:40;19.73;;;18.17;;
76566;SDS011;65428;53.194;6.132;2023-05-07T18:54:06;20.23;;;18.63;;
76566;SDS011;65428;53.194;6.132;2023-05-07T18:56:32;20.15;;;18.52;;
76566;SDS011;65428;53.194;6.132;2023-05-07T18:59:00;20.50;;;18.70;;
76566;SDS011;65428;53.194;6.132;2023-05-07T19:04:20;19.98;;;18.38;;
76566;SDS011;65428;53.194;6.132;2023-05-07T19:09:44;20.35;;;18.55;;
76566;SDS011;65428;53.194;6.132;2023-05-07T19:12:10;19.88;;;18.25;;
76566;SDS011;65428;53.194;6.132;2023-05-07T19:14:36;20.85;;;19.15;;
76566;SDS011;65428;53.194;6.132;2023-05-07T19:17:07;20.38;;;18.77;;
76566;SDS011;65428;53.194;6.132;2023-05-07T19:19:33;20.48;;;18.75;;
76566;SDS011;65428;53.194;6.132;2023-05-07T19:22:01;20.90;;;19.13;;
76566;SDS011;65428;53.194;6.132;2023-05-07T19:24:30;21.17;;;19.48;;
76566;SDS011;65428;53.194;6.132;2023-05-07T19:27:03;21.27;;;19.45;;
76566;SDS011;65428;53.194;6.132;2023-05-07T19:29:28;21.42;;;19.70;;
76566;SDS011;65428;53.194;6.132;2023-05-07T19:31:55;21.25;;;19.55;;
76566;SDS011;65428;53.194;6.132;2023-05-07T19:34:21;21.90;;;20.00;;
76566;SDS011;65428;53.194;6.132;2023-05-07T19:36:46;22.23;;;20.42;;
76566;SDS011;65428;53.194;6.132;2023-05-07T19:39:12;22.33;;;20.43;;
76566;SDS011;65428;53.194;6.132;2023-05-07T19:41:41;21.55;;;19.80;;
76566;SDS011;65428;53.194;6.132;2023-05-07T19:44:07;22.15;;;20.35;;
76566;SDS011;65428;53.194;6.132;2023-05-07T19:46:58;22.13;;;20.43;;
76566;SDS011;65428;53.194;6.132;2023-05-07T19:49:26;22.77;;;20.88;;
76566;SDS011;65428;53.194;6.132;2023-05-07T19:51:52;22.27;;;20.38;;
76566;SDS011;65428;53.194;6.132;2023-05-07T19:54:21;22.00;;;20.05;;
76566;SDS011;65428;53.194;6.132;2023-05-07T19:56:50;21.97;;;20.17;;
76566;SDS011;65428;53.194;6.132;2023-05-07T19:59:15;21.63;;;19.80;;
76566;SDS011;65428;53.194;6.132;2023-05-07T20:01:57;21.45;;;19.65;;
76566;SDS011;65428;53.194;6.132;2023-05-07T20:04:22;21.23;;;19.42;;
76566;SDS011;65428;53.194;6.132;2023-05-07T20:06:53;21.67;;;19.90;;
76566;SDS011;65428;53.194;6.132;2023-05-07T20:09:18;21.52;;;19.73;;
76566;SDS011;65428;53.194;6.132;2023-05-07T20:11:55;21.52;;;19.73;;
76566;SDS011;65428;53.194;6.132;2023-05-07T20:14:25;20.83;;;19.13;;
76566;SDS011;65428;53.194;6.132;2023-05-07T20:17:00;21.00;;;19.27;;
76566;SDS011;65428;53.194;6.132;2023-05-07T20:19:28;21.20;;;19.40;;
76566;SDS011;65428;53.194;6.132;2023-05-07T20:21:56;20.70;;;19.00;;
76566;SDS011;65428;53.194;6.132;2023-05-07T20:24:48;20.35;;;18.65;;
76566;SDS011;65428;53.194;6.132;2023-05-07T20:27:13;20.30;;;18.60;;
76566;SDS011;65428;53.194;6.132;2023-05-07T20:29:40;20.08;;;18.38;;
76566;SDS011;65428;53.194;6.132;2023-05-07T20:32:05;19.85;;;18.20;;
76566;SDS011;65428;53.194;6.132;2023-05-07T20:34:31;20.55;;;18.90;;
76566;SDS011;65428;53.194;6.132;2023-05-07T20:37:02;20.70;;;19.00;;
76566;SDS011;65428;53.194;6.132;2023-05-07T20:39:29;21.33;;;19.52;;
76566;SDS011;65428;53.194;6.132;2023-05-07T20:41:55;21.60;;;19.80;;
76566;SDS011;65428;53.194;6.132;2023-05-07T20:44:20;21.00;;;19.25;;
76566;SDS011;65428;53.194;6.132;2023-05-07T20:46:46;21.67;;;19.87;;
76566;SDS011;65428;53.194;6.132;2023-05-07T20:49:12;22.42;;;20.63;;
76566;SDS011;65428;53.194;6.132;2023-05-07T20:51:38;21.40;;;19.60;;